Time;durP1;ratioP1;P1;durP2;ratioP2;P2;SDS_P1;SDS_P2;PMS_P1;PMS_P2;Temp;Humidity;BMP_temperature;BMP_pressure;BME280_temperature;BME280_humidity;BME280_pressure;Samples;Min_cycle;Max_cycle;Signal;HPM_P1;HPM_P2
2024/01/27 00:02:22;;;;;;;4.33;2.80;;;5.30;80.90;;;5.22;53.31;95413.75;5070256;28;20494;-62
2024/01/27 00:04:50;;;;;;;5.20;3.70;;;5.30;80.90;;;5.22;53.71;95416.38;5069907;28;20451;-62
2024/01/27 00:07:17;;;;;;;5.93;3.53;;;5.40;81.50;;;5.17;53.24;95405.38;5070247;28;20847;-62
2024/01/27 00:09:44;;;;;;;11.10;3.40;;;5.40;81.50;;;5.16;53.36;95414.97;5069585;28;20509;-61
2024/01/27 00:12:13;;;;;;;8.80;3.10;;;5.30;81.50;;;5.16;53.99;95416.75;5069509;28;20497;-56
2024/01/27 00:14:40;;;;;;;8.03;4.00;;;5.30;82.10;;;5.15;53.62;95412.44;5069793;28;20459;-62
2024/01/27 00:17:07;;;;;;;12.93;3.70;;;5.30;81.80;;;5.14;53.45;95401.19;5069729;28;20478;-63
2024/01/27 00:19:35;;;;;;;11.43;4.93;;;5.30;81.60;;;5.15;52.89;95391.59;5069415;28;22487;-56
2024/01/27 00:22:02;;;;;;;6.70;2.90;;;5.30;81.40;;;5.15;53.91;95391.59;5069970;28;20475;-62
2024/01/27 00:24:29;;;;;;;4.70;3.27;;;5.30;82.10;;;5.16;53.54;95404.53;5070109;28;20553;-56
2024/01/27 00:26:57;;;;;;;5.83;2.97;;;5.30;82.00;;;5.18;53.84;95410.47;5069467;28;20471;-63
2024/01/27 00:29:25;;;;;;;7.60;3.00;;;5.30;82.20;;;5.20;53.78;95399.97;5069587;28;20583;-62
2024/01/27 00:31:54;;;;;;;5.97;3.33;;;5.30;82.00;;;5.21;54.26;95399.88;5070773;28;20467;-62
2024/01/27 00:34:21;;;;;;;3.63;2.83;;;5.30;82.80;;;5.21;53.64;95394.66;5073700;28;20486;-58
2024/01/27 00:36:49;;;;;;;6.20;3.00;;;5.30;82.30;;;5.25;53.94;95403.16;5070584;28;21039;-61
2024/01/27 00:39:17;;;;;;;5.97;2.87;;;5.30;82.70;;;5.27;53.93;95401.28;5070038;28;20902;-57
2024/01/27 00:41:44;;;;;;;5.93;2.70;;;5.40;82.50;;;5.30;53.46;95392.41;5069314;28;20491;-63
2024/01/27 00:44:11;;;;;;;5.27;3.00;;;5.40;82.30;;;5.32;53.41;95394.00;5069453;28;20454;-58
2024/01/27 00:46:40;;;;;;;6.93;2.67;;;5.40;81.60;;;5.33;53.26;95405.25;5068842;28;20482;-63
2024/01/27 00:49:08;;;;;;;5.03;3.30;;;5.40;81.90;;;5.34;53.86;95401.72;5069502;28;20862;-57
2024/01/27 00:51:35;;;;;;;7.47;3.13;;;5.40;82.10;;;5.33;53.65;95400.91;5068963;28;20490;-63
2024/01/27 00:54:02;;;;;;;10.00;3.40;;;5.40;82.60;;;5.35;53.46;95403.41;5069523;28;20451;-56
2024/01/27 00:56:30;;;;;;;6.40;3.00;;;5.40;82.20;;;5.35;53.54;95404.22;5069649;28;20858;-57
2024/01/27 00:58:57;;;;;;;7.83;3.27;;;5.50;82.30;;;5.34;53.68;95389.50;5069725;28;20482;-62
2024/01/27 01:01:24;;;;;;;7.30;3.30;;;5.50;82.30;;;5.37;53.85;95396.31;5068782;28;20502;-61
2024/01/27 01:03:53;;;;;;;9.50;3.57;;;5.50;82.50;;;5.37;53.32;95404.97;5068869;28;20891;-57
2024/01/27 01:06:20;;;;;;;10.73;3.90;;;5.50;82.30;;;5.38;53.58;95398.81;5069111;28;21006;-58
2024/01/27 01:08:47;;;;;;;11.93;4.03;;;5.50;82.40;;;5.39;54.46;95395.31;5069092;28;20454;-56
2024/01/27 01:11:14;;;;;;;7.20;3.13;;;5.50;83.70;;;5.41;53.98;95390.00;5068811;28;20467;-63
2024/01/27 01:13:42;;;;;;;6.70;3.33;;;5.50;82.80;;;5.42;53.28;95404.69;5068591;28;20493;-57
2024/01/27 01:16:09;;;;;;;11.37;3.70;;;5.50;82.70;;;5.43;53.74;95411.59;5069247;28;20840;-63
2024/01/27 01:18:36;;;;;;;5.80;3.30;;;5.50;82.70;;;5.44;54.02;95401.97;5072795;28;20451;-57
2024/01/27 01:21:05;;;;;;;13.27;4.30;;;5.60;83.10;;;5.45;53.78;95395.84;5072689;28;20495;-58
2024/01/27 01:23:32;;;;;;;12.17;3.87;;;5.60;83.40;;;5.45;54.13;95393.22;5072755;28;20544;-57
2024/01/27 01:26:00;;;;;;;11.27;3.67;;;5.60;83.30;;;5.46;53.53;95392.31;5072914;28;20466;-62
2024/01/27 01:28:28;;;;;;;7.43;4.30;;;5.50;82.80;;;5.45;53.71;95391.44;5072771;28;20462;-57
2024/01/27 01:30:55;;;;;;;6.50;2.97;;;5.60;83.00;;;5.43;53.40;95388.09;5073372;28;20867;-63
2024/01/27 01:33:23;;;;;;;8.20;3.37;;;5.60;82.40;;;5.43;53.53;95385.50;5072814;28;20796;-63
2024/01/27 01:35:50;;;;;;;10.80;2.93;;;5.60;82.30;;;5.41;53.27;95382.16;5072321;28;20467;-56
2024/01/27 01:38:18;;;;;;;4.70;3.37;;;5.50;82.30;;;5.39;53.55;95382.25;5072878;28;20458;-58
2024/01/27 01:40:46;;;;;;;7.47;3.53;;;5.50;82.40;;;5.41;53.77;95381.31;5072274;28;20494;-63
2024/01/27 01:43:13;;;;;;;9.53;3.00;;;5.50;82.90;;;5.42;53.35;95376.00;5072527;28;20473;-56
2024/01/27 01:45:40;;;;;;;6.97;3.40;;;5.50;82.50;;;5.44;53.46;95371.53;5072300;28;20588;-57
2024/01/27 01:48:08;;;;;;;7.17;3.63;;;5.50;82.20;;;5.45;53.58;95373.19;5072398;28;20454;-57
2024/01/27 01:50:36;;;;;;;9.33;3.40;;;5.60;82.40;;;5.48;53.53;95372.16;5072328;28;20471;-63
2024/01/27 01:53:03;;;;;;;7.93;3.17;;;5.60;82.40;;;5.50;53.22;95375.50;5072383;28;20462;-63
2024/01/27 01:55:31;;;;;;;12.40;3.73;;;5.60;82.40;;;5.52;53.85;95376.28;5072363;28;20478;-63
2024/01/27 01:57:59;;;;;;;7.13;3.50;;;5.60;83.00;;;5.54;53.39;95380.44;5072390;28;20565;-57
2024/01/27 02:00:26;;;;;;;5.47;3.67;;;5.60;82.40;;;5.55;53.50;95371.69;5072162;28;20486;-57
2024/01/27 02:02:53;;;;;;;8.47;3.60;;;5.60;82.50;;;5.58;53.48;95373.28;5072135;28;20568;-57
2024/01/27 02:05:21;;;;;;;6.90;3.60;;;5.70;82.50;;;5.59;53.37;95364.50;5071640;28;20479;-58
2024/01/27 02:07:48;;;;;;;10.07;4.63;;;5.70;82.40;;;5.62;53.30;95353.03;5071812;28;20512;-58
2024/01/27 02:10:17;;;;;;;7.73;3.80;;;5.70;82.70;;;5.63;53.59;95357.34;5071927;28;20447;-65
2024/01/27 02:12:46;;;;;;;9.00;3.30;;;5.70;82.50;;;5.62;53.31;95353.88;5071540;28;20451;-58
2024/01/27 02:15:13;;;;;;;6.13;4.17;;;5.70;82.70;;;5.63;53.51;95349.50;5071989;28;20469;-63
2024/01/27 02:17:41;;;;;;;9.77;3.93;;;5.70;82.50;;;5.60;52.81;95342.69;5071564;28;20447;-62
2024/01/27 02:20:09;;;;;;;11.10;4.40;;;5.70;81.90;;;5.59;52.85;95348.84;5071443;28;20447;-64
2024/01/27 02:22:36;;;;;;;13.90;5.53;;;5.70;81.90;;;5.60;52.85;95350.53;5071819;28;20455;-63
2024/01/27 02:25:06;;;;;;;8.97;4.20;;;5.70;82.10;;;5.59;53.31;95341.00;5071638;28;20493;-63
2024/01/27 02:27:33;;;;;;;18.67;4.43;;;5.70;81.90;;;5.61;52.95;95336.56;5071502;28;20503;-57
2024/01/27 02:30:01;;;;;;;10.33;4.40;;;5.70;82.00;;;5.61;52.76;95336.56;5071263;28;20451;-63
2024/01/27 02:32:28;;;;;;;5.30;3.53;;;5.70;81.90;;;5.61;53.47;95333.94;5071721;28;20532;-62
2024/01/27 02:34:55;;;;;;;14.23;4.70;;;5.70;82.20;;;5.59;53.11;95332.34;5071533;28;20455;-63
2024/01/27 02:37:23;;;;;;;13.23;4.70;;;5.70;82.20;;;5.65;52.95;95343.22;5070994;28;20548;-57
2024/01/27 02:39:50;;;;;;;17.73;4.27;;;5.80;82.00;;;5.66;53.05;95339.69;5071507;28;20447;-58
2024/01/27 02:42:19;;;;;;;14.30;4.23;;;5.80;81.60;;;5.68;52.81;95337.81;5071334;28;20501;-63
2024/01/27 02:44:46;;;;;;;4.97;3.77;;;5.80;82.00;;;5.70;52.45;95340.31;5071155;28;20459;-56
2024/01/27 02:47:13;;;;;;;13.87;4.13;;;5.80;81.10;;;5.71;52.74;95339.41;5071234;28;20463;-63
2024/01/27 02:49:40;;;;;;;10.53;3.60;;;5.80;81.60;;;5.75;53.03;95336.50;5070763;28;20451;-63
2024/01/27 02:52:08;;;;;;;5.20;2.80;;;5.80;81.60;;;5.78;52.67;95343.31;5070620;28;20552;-56
2024/01/27 02:54:36;;;;;;;12.43;3.23;;;5.90;81.30;;;5.80;52.56;95341.41;5071044;28;21015;-56
2024/01/27 02:57:03;;;;;;;9.57;3.67;;;5.90;80.40;;;5.83;52.39;95348.22;5070731;28;20471;-57
2024/01/27 02:59:32;;;;;;;12.23;4.07;;;5.90;80.90;;;5.86;53.14;95355.84;5071152;28;20978;-57
2024/01/27 03:02:00;;;;;;;13.87;5.33;;;5.90;81.70;;;5.88;52.75;95357.41;5070509;28;20534;-62
2024/01/27 03:04:27;;;;;;;12.97;3.80;;;6.00;81.00;;;5.90;52.37;95355.56;5070541;28;20971;-63
2024/01/27 03:06:54;;;;;;;6.00;3.13;;;6.00;80.20;;;5.92;51.79;95361.50;5070262;28;20882;-57
2024/01/27 03:09:22;;;;;;;5.67;2.80;;;6.00;79.60;;;5.93;51.86;95357.13;5070649;28;20451;-64
2024/01/27 03:11:49;;;;;;;6.80;3.97;;;6.00;79.10;;;5.96;51.54;95364.75;5070305;28;20478;-61
2024/01/27 03:14:16;;;;;;;4.20;2.63;;;6.00;79.30;;;5.98;51.72;95354.25;5070711;28;20447;-57
2024/01/27 03:16:45;;;;;;;4.87;2.33;;;6.10;79.30;;;6.03;51.77;95357.41;5070345;28;20467;-63
2024/01/27 03:19:12;;;;;;;7.10;2.50;;;6.10;79.30;;;6.07;51.71;95362.34;5062182;28;20462;-58
2024/01/27 03:21:39;;;;;;;8.43;2.53;;;6.10;80.10;;;6.13;52.11;95363.69;5070401;28;20498;-59
2024/01/27 03:24:07;;;;;;;8.43;3.67;;;6.20;80.40;;;6.17;52.40;95362.56;5066719;28;20459;-63
2024/01/27 03:26:34;;;;;;;11.23;4.60;;;6.20;80.60;;;6.19;52.15;95357.22;5070287;28;20471;-56
2024/01/27 03:29:02;;;;;;;8.23;2.40;;;6.30;80.90;;;6.21;52.30;95352.72;5070155;28;20466;-63
2024/01/27 03:31:31;;;;;;;12.87;2.53;;;6.30;81.40;;;6.22;52.76;95349.19;5070468;28;20497;-63
2024/01/27 03:34:00;;;;;;;13.73;3.00;;;6.30;81.70;;;6.24;52.66;95352.53;5070381;28;20901;-63
2024/01/27 03:36:27;;;;;;;5.53;3.27;;;6.30;81.40;;;6.26;52.26;95343.66;5070410;28;20463;-63
2024/01/27 03:38:56;;;;;;;9.40;3.30;;;6.40;81.50;;;6.27;52.84;95339.28;5068359;28;20458;-64
2024/01/27 03:41:23;;;;;;;17.10;5.47;;;6.40;81.90;;;6.27;52.74;95334.91;5068540;28;20495;-63
2024/01/27 03:43:51;;;;;;;9.33;4.80;;;6.40;81.70;;;6.29;52.71;95337.41;5070390;28;20500;-58
2024/01/27 03:46:18;;;;;;;17.47;6.03;;;6.40;82.10;;;6.28;53.21;95336.56;5069923;28;20474;-58
2024/01/27 03:48:45;;;;;;;18.30;6.83;;;6.40;82.20;;;6.26;52.92;95328.00;5070165;28;20470;-58
2024/01/27 03:51:14;;;;;;;18.27;6.10;;;6.40;82.20;;;6.25;53.42;95333.31;5069638;28;20470;-58
2024/01/27 03:53:41;;;;;;;14.83;5.80;;;6.30;82.10;;;6.21;54.23;95324.84;5070150;28;20908;-65
2024/01/27 03:56:12;;;;;;;15.63;7.07;;;6.30;83.10;;;6.18;53.98;95330.28;5070067;28;20563;-64
2024/01/27 03:58:39;;;;;;;12.77;4.67;;;6.30;83.40;;;6.17;53.59;95333.00;5069671;28;20454;-57
2024/01/27 04:01:07;;;;;;;13.30;5.70;;;6.30;83.50;;;6.17;54.29;95333.00;5069888;28;20501;-58
2024/01/27 04:03:34;;;;;;;15.93;6.37;;;6.30;84.20;;;6.16;54.38;95339.97;5070123;28;20896;-58
2024/01/27 04:06:02;;;;;;;11.90;5.80;;;6.20;85.30;;;6.14;53.88;95328.81;5070503;28;20474;-59
2024/01/27 04:08:31;;;;;;;8.83;4.93;;;6.20;84.70;;;6.15;54.06;95340.94;5069879;28;20447;-57
2024/01/27 04:10:58;;;;;;;14.77;5.30;;;6.20;85.00;;;6.15;54.74;95337.47;5070283;28;20478;-58
2024/01/27 04:13:26;;;;;;;22.50;6.77;;;6.20;85.40;;;6.14;54.64;95331.41;5069782;28;20450;-63
2024/01/27 04:15:53;;;;;;;17.53;6.70;;;6.30;85.50;;;6.12;54.60;95325.47;5069610;28;20467;-64
2024/01/27 04:18:21;;;;;;;12.70;4.90;;;6.20;85.40;;;6.12;54.63;95317.63;5068521;28;20463;-63
2024/01/27 04:20:48;;;;;;;14.00;4.73;;;6.20;85.50;;;6.13;54.42;95326.28;5068875;28;20864;-58
2024/01/27 04:23:16;;;;;;;11.10;5.80;;;6.20;85.40;;;6.13;55.07;95336.75;5069458;28;20454;-59
2024/01/27 04:25:45;;;;;;;11.23;5.10;;;6.20;85.40;;;6.12;55.17;95329.84;5068890;28;20990;-60
2024/01/27 04:28:13;;;;;;;21.30;5.87;;;6.20;86.20;;;6.12;54.92;95328.09;5068998;28;20935;-57
2024/01/27 04:30:40;;;;;;;11.20;5.67;;;6.20;86.60;;;6.12;55.31;95337.66;5069400;28;20467;-58
2024/01/27 04:33:07;;;;;;;11.73;6.00;;;6.20;86.90;;;6.12;55.76;95329.84;5069121;28;20454;-59
2024/01/27 04:35:35;;;;;;;16.77;4.80;;;6.20;87.20;;;6.12;55.58;95335.91;5069242;28;20503;-64
2024/01/27 04:38:02;;;;;;;14.10;4.97;;;6.20;87.40;;;6.10;55.24;95332.53;5069746;28;20490;-59
2024/01/27 04:40:30;;;;;;;6.37;3.87;;;6.20;87.70;;;6.09;55.48;95331.72;5069191;28;21017;-64
2024/01/27 04:42:58;;;;;;;5.97;4.20;;;6.20;88.20;;;6.09;55.95;95321.28;5069245;28;20490;-57
2024/01/27 04:45:25;;;;;;;11.50;4.60;;;6.20;88.20;;;6.10;55.63;95319.50;5069256;28;20467;-57
2024/01/27 04:47:53;;;;;;;12.80;3.87;;;6.20;88.70;;;6.10;56.16;95320.34;5069498;28;20505;-64
2024/01/27 04:50:20;;;;;;;6.70;3.77;;;6.20;88.70;;;6.10;56.20;95328.19;5069284;28;20470;-58
2024/01/27 04:52:47;;;;;;;4.17;3.30;;;6.20;89.10;;;6.12;56.57;95325.47;5069265;28;20516;-58
2024/01/27 04:55:15;;;;;;;7.67;3.63;;;6.20;89.90;;;6.13;56.46;95332.34;5069166;28;20951;-64
2024/01/27 04:57:43;;;;;;;8.20;3.70;;;6.20;90.20;;;6.15;56.49;95333.09;5069470;28;20892;-64
2024/01/27 05:00:14;;;;;;;15.33;3.60;;;6.20;90.60;;;6.16;56.62;95337.38;5069302;28;20461;-64
2024/01/27 05:02:41;;;;;;;12.47;3.30;;;6.20;90.60;;;6.18;57.07;95340.72;5067859;28;20494;-58
2024/01/27 05:05:09;;;;;;;8.37;3.93;;;6.30;91.20;;;6.19;57.70;95341.56;5071399;28;20579;-63
2024/01/27 05:07:36;;;;;;;6.63;3.00;;;6.30;91.40;;;6.22;57.49;95343.97;5069600;28;20955;-57
2024/01/27 05:10:04;;;;;;;7.23;3.30;;;6.30;91.30;;;6.24;57.77;95339.47;5069019;28;20447;-64
2024/01/27 05:12:31;;;;;;;6.07;3.60;;;6.30;92.20;;;6.24;58.25;95344.69;5068948;28;20493;-59
2024/01/27 05:14:59;;;;;;;5.40;3.33;;;6.30;91.90;;;6.26;57.87;95345.44;5069460;28;20447;-63
2024/01/27 05:17:27;;;;;;;4.53;3.20;;;6.30;91.80;;;6.26;58.29;95341.06;5068884;28;21042;-64
2024/01/27 05:19:55;;;;;;;4.57;3.40;;;6.30;92.10;;;6.28;58.30;95348.78;5069468;28;20446;-64
2024/01/27 05:22:22;;;;;;;7.70;3.00;;;6.40;92.30;;;6.30;58.37;95353.91;5068847;28;20943;-63
2024/01/27 05:24:49;;;;;;;9.13;3.47;;;6.40;92.90;;;6.28;58.72;95352.22;5069068;28;20481;-64
2024/01/27 05:27:17;;;;;;;8.10;2.83;;;6.40;92.80;;;6.28;58.01;95351.41;5069314;28;20471;-64
2024/01/27 05:29:45;;;;;;;2.83;2.07;;;6.40;92.60;;;6.27;58.71;95349.72;5063302;28;20742;-58
2024/01/27 05:32:14;;;;;;;11.43;3.60;;;6.40;93.40;;;6.26;59.04;95348.06;5059364;28;20479;-64
2024/01/27 05:34:43;;;;;;;8.43;2.77;;;6.40;93.80;;;6.23;59.36;95353.50;5054065;28;20903;-63
2024/01/27 05:37:10;;;;;;;4.93;2.20;;;6.30;93.80;;;6.20;59.04;95344.06;5058756;28;20499;-57
2024/01/27 05:39:37;;;;;;;5.00;2.60;;;6.30;93.60;;;6.19;59.23;95352.84;5058668;28;20976;-58
2024/01/27 05:42:05;;;;;;;8.70;2.37;;;6.30;93.40;;;6.19;59.17;95352.84;5060581;28;20602;-63
2024/01/27 05:44:32;;;;;;;3.60;2.53;;;6.30;94.00;;;6.18;59.53;95356.41;5064612;28;20584;-64
2024/01/27 05:47:00;;;;;;;8.30;3.43;;;6.30;94.20;;;6.17;59.88;95364.34;5062119;28;20471;-63
2024/01/27 05:49:27;;;;;;;6.87;3.30;;;6.30;94.30;;;6.16;59.88;95362.66;5066895;28;20461;-57
2024/01/27 05:51:55;;;;;;;9.47;3.20;;;6.30;94.80;;;6.14;60.42;95370.59;5064515;28;20995;-59
2024/01/27 05:54:23;;;;;;;7.73;3.70;;;6.20;95.00;;;6.10;59.78;95376.94;5068692;28;20765;-58
2024/01/27 05:56:50;;;;;;;8.73;4.20;;;6.20;95.30;;;6.05;59.94;95372.03;5068640;28;21034;-58
2024/01/27 05:59:17;;;;;;;7.60;4.00;;;6.20;95.00;;;6.02;60.26;95372.22;5068707;28;20974;-63
2024/01/27 06:01:44;;;;;;;7.70;3.70;;;6.10;95.70;;;5.97;61.06;95378.69;5067983;28;20547;-58
2024/01/27 06:04:12;;;;;;;4.90;3.47;;;6.10;96.40;;;5.92;60.74;95385.00;5070596;28;20500;-58
2024/01/27 06:06:40;;;;;;;6.90;3.53;;;6.00;96.30;;;5.89;61.32;95387.00;5072285;28;20558;-64
2024/01/27 06:09:10;;;;;;;11.90;3.93;;;6.00;96.30;;;5.85;60.77;95390.72;5072277;28;20873;-63
2024/01/27 06:11:40;;;;;;;7.07;3.90;;;6.00;96.50;;;5.81;60.46;95386.63;5072142;28;20847;-63
2024/01/27 06:14:07;;;;;;;7.10;3.87;;;5.90;96.20;;;5.78;60.78;95387.66;5071737;28;20462;-59
2024/01/27 06:16:35;;;;;;;11.60;5.10;;;5.90;96.30;;;5.80;60.49;95382.34;5071987;28;21111;-59
2024/01/27 06:19:02;;;;;;;9.30;4.30;;;5.90;96.50;;;5.81;61.10;95402.28;5070104;28;20457;-58
2024/01/27 06:21:29;;;;;;;12.23;4.60;;;5.90;96.70;;;5.79;61.86;95391.94;5070156;28;20477;-59
2024/01/27 06:23:57;;;;;;;5.77;3.50;;;5.90;97.10;;;5.81;62.08;95395.31;5070790;28;20458;-58
2024/01/27 06:26:25;;;;;;;5.33;3.27;;;5.90;97.60;;;5.82;61.14;95406.56;5073686;28;21013;-63
2024/01/27 06:28:52;;;;;;;3.80;2.80;;;5.90;97.40;;;5.84;60.90;95410.78;5071983;28;20450;-63
2024/01/27 06:31:20;;;;;;;4.13;3.27;;;5.90;97.10;;;5.84;62.25;95425.56;5071067;28;20616;-59
2024/01/27 06:33:47;;;;;;;4.97;3.10;;;5.90;97.90;;;5.85;61.41;95428.09;5070310;28;20511;-63
2024/01/27 06:36:14;;;;;;;7.83;2.73;;;5.90;97.40;;;5.88;62.53;95421.84;5069857;28;20508;-65
2024/01/27 06:38:42;;;;;;;6.10;2.73;;;6.00;98.30;;;5.90;61.75;95446.06;5062507;28;21013;-63
2024/01/27 06:41:09;;;;;;;3.40;3.10;;;6.00;97.80;;;5.90;62.38;95439.09;5062643;28;20539;-63
2024/01/27 06:43:38;;;;;;;5.63;3.30;;;6.00;98.50;;;5.89;62.44;95437.41;5064167;28;20544;-64
2024/01/27 06:46:05;;;;;;;6.80;2.70;;;6.00;98.70;;;5.89;61.99;95445.25;5059467;28;20474;-64
2024/01/27 06:48:32;;;;;;;5.63;3.33;;;6.00;98.00;;;5.92;63.33;95444.22;5069420;28;20451;-58
2024/01/27 06:51:00;;;;;;;4.13;3.20;;;6.00;99.00;;;5.92;62.87;95449.44;5071199;28;20518;-63
2024/01/27 06:53:27;;;;;;;9.00;4.33;;;6.00;98.80;;;5.93;62.37;95445.88;5071146;28;20459;-58
2024/01/27 06:55:55;;;;;;;3.07;2.77;;;6.00;98.50;;;5.95;62.63;95440.56;5071298;28;20479;-58
2024/01/27 06:58:23;;;;;;;8.27;2.50;;;6.00;99.10;;;5.95;62.15;95441.41;5070821;28;20474;-57
2024/01/27 07:00:52;;;;;;;6.47;2.80;;;6.10;98.50;;;6.01;62.77;95441.06;5071883;28;20502;-66
2024/01/27 07:03:19;;;;;;;7.43;2.73;;;6.10;99.00;;;6.10;62.21;95419.59;5070511;28;20517;-63
2024/01/27 07:05:47;;;;;;;2.40;2.20;;;6.10;99.00;;;6.18;62.39;95433.91;5071155;28;20794;-63
2024/01/27 07:08:14;;;;;;;3.70;2.97;;;6.20;98.60;;;6.26;61.88;95426.44;5071294;28;20473;-58
2024/01/27 07:10:43;;;;;;;4.43;2.73;;;6.30;98.60;;;6.32;62.41;95425.16;5071343;28;20780;-64
2024/01/27 07:13:11;;;;;;;7.80;2.53;;;6.40;98.70;;;6.38;61.54;95435.22;5070954;28;20454;-63
2024/01/27 07:15:38;;;;;;;2.37;2.10;;;6.40;98.60;;;6.41;61.34;95441.09;5071058;28;20510;-58
2024/01/27 07:18:08;;;;;;;3.30;2.57;;;6.50;98.20;;;6.42;61.38;95442.75;5070682;28;20442;-63
2024/01/27 07:20:36;;;;;;;2.47;2.27;;;6.50;97.70;;;6.45;60.90;95447.78;5070399;28;20477;-63
2024/01/27 07:23:03;;;;;;;3.40;1.80;;;6.50;97.60;;;6.49;61.30;95450.19;5070522;28;20486;-60
2024/01/27 07:25:31;;;;;;;3.70;2.60;;;6.60;98.00;;;6.50;61.28;95460.53;5070628;28;20471;-64
2024/01/27 07:27:58;;;;;;;2.00;1.43;;;6.60;97.80;;;6.53;60.92;95459.53;5070462;28;20447;-58
2024/01/27 07:30:25;;;;;;;2.60;1.70;;;6.60;98.00;;;6.57;61.10;95482.75;5070252;28;20604;-63
2024/01/27 07:32:53;;;;;;;2.67;1.87;;;6.70;97.80;;;6.61;61.17;95489.41;5070055;28;20540;-64
2024/01/27 07:35:22;;;;;;;2.50;2.30;;;6.70;97.90;;;6.65;60.62;95500.53;5071209;28;20478;-63
2024/01/27 07:37:49;;;;;;;2.13;1.90;;;6.70;97.50;;;6.66;60.56;95515.25;5070128;28;20457;-58
2024/01/27 07:40:16;;;;;;;2.80;1.57;;;6.70;97.70;;;6.64;60.36;95517.16;5059027;28;20452;-63
2024/01/27 07:42:44;;;;;;;1.63;1.53;;;6.70;97.40;;;6.64;60.27;95517.97;5065722;28;20853;-58
2024/01/27 07:45:11;;;;;;;3.50;1.47;;;6.70;97.20;;;6.63;60.11;95533.75;5069802;28;20825;-57
2024/01/27 07:47:38;;;;;;;1.70;1.30;;;6.70;97.00;;;6.64;60.09;95519.75;5069073;28;20970;-58
2024/01/27 07:50:07;;;;;;;2.27;1.30;;;6.70;96.80;;;6.65;59.69;95521.44;5069525;28;20863;-64
2024/01/27 07:52:35;;;;;;;2.67;2.10;;;6.70;96.60;;;6.64;59.46;95519.75;5069999;28;20454;-64
2024/01/27 07:55:03;;;;;;;2.07;1.97;;;6.70;96.60;;;6.64;59.56;95522.38;5070287;28;20450;-64
2024/01/27 07:57:31;;;;;;;1.83;1.70;;;6.70;96.60;;;6.65;60.10;95526.69;5069667;28;20458;-63
2024/01/27 07:59:58;;;;;;;2.53;1.63;;;6.70;96.80;;;6.66;59.59;95522.28;5070177;28;20458;-64
2024/01/27 08:02:26;;;;;;;1.77;1.67;;;6.70;96.60;;;6.67;59.86;95535.25;5068794;28;20486;-59
2024/01/27 08:04:53;;;;;;;1.77;1.67;;;6.70;96.40;;;6.68;59.57;95533.47;5069452;28;20458;-63
2024/01/27 08:07:20;;;;;;;3.10;2.50;;;6.80;96.70;;;6.70;59.71;95524.59;5069552;28;20470;-59
2024/01/27 08:09:49;;;;;;;2.23;2.03;;;6.70;96.20;;;6.68;59.73;95550.00;5070104;28;20447;-71
2024/01/27 08:12:17;;;;;;;2.00;1.80;;;6.70;96.30;;;6.70;59.82;95558.56;5069644;28;20562;-57
2024/01/27 08:14:44;;;;;;;4.60;2.17;;;6.80;96.40;;;6.68;59.25;95557.84;5069966;28;20538;-63
2024/01/27 08:17:13;;;;;;;4.87;2.07;;;6.70;96.20;;;6.71;59.48;95531.50;5069913;28;20532;-64
2024/01/27 08:19:40;;;;;;;2.20;2.10;;;6.80;96.20;;;6.72;59.45;95532.34;5069894;28;20513;-59
2024/01/27 08:22:09;;;;;;;2.23;2.03;;;6.80;96.40;;;6.71;59.41;95547.19;5069518;28;20498;-63
2024/01/27 08:24:36;;;;;;;5.83;2.40;;;6.80;96.20;;;6.71;59.45;95547.19;5069664;28;20447;-59
2024/01/27 08:27:06;;;;;;;2.67;1.63;;;6.80;96.20;;;6.72;59.31;95540.19;5069537;28;20470;-63
2024/01/27 08:29:33;;;;;;;2.67;2.30;;;6.80;96.60;;;6.73;58.92;95529.63;5069904;28;20501;-62
2024/01/27 08:32:01;;;;;;;3.03;2.57;;;6.80;96.00;;;6.77;58.78;95531.09;5068465;28;20463;-63
2024/01/27 08:34:29;;;;;;;4.03;1.90;;;6.80;95.80;;;6.79;59.09;95518.75;5069159;28;20455;-63
2024/01/27 08:37:01;;;;;;;2.50;2.30;;;6.80;95.70;;;6.84;58.44;95544.59;5069782;28;20471;-62
2024/01/27 08:39:29;;;;;;;3.17;2.10;;;6.90;95.50;;;6.86;58.84;95542.72;5069450;28;20443;-62
2024/01/27 08:41:57;;;;;;;2.00;1.87;;;6.90;95.40;;;6.88;58.42;95542.63;5069193;28;20512;-57
2024/01/27 08:44:26;;;;;;;2.10;2.00;;;6.90;95.20;;;6.89;58.83;95526.00;5069140;28;20512;-58
2024/01/27 08:46:53;;;;;;;2.77;1.70;;;6.90;95.20;;;6.91;58.49;95529.34;5069354;28;20479;-63
2024/01/27 08:49:20;;;;;;;1.60;1.50;;;7.00;95.10;;;6.93;57.97;95535.34;5069617;28;20454;-62
2024/01/27 08:51:48;;;;;;;1.87;1.70;;;7.00;95.00;;;6.94;57.73;95552.69;5068092;28;20536;-58
2024/01/27 08:54:16;;;;;;;2.10;1.90;;;7.00;94.90;;;6.96;58.09;95529.91;5060405;28;20945;-59
2024/01/27 08:56:43;;;;;;;1.40;1.30;;;7.00;94.90;;;6.96;58.07;95529.91;5062495;28;20563;-63
2024/01/27 08:59:10;;;;;;;3.67;2.10;;;7.00;94.80;;;6.97;58.04;95527.19;5068579;28;20438;-58
2024/01/27 09:01:39;;;;;;;2.63;2.00;;;7.10;94.80;;;7.03;58.35;95552.06;5067867;28;20467;-59
2024/01/27 09:04:07;;;;;;;2.00;1.80;;;7.10;94.90;;;7.09;57.57;95543.00;5067970;28;20479;-58
2024/01/27 09:06:34;;;;;;;1.77;1.60;;;7.10;94.70;;;7.12;57.83;95538.38;5069229;28;20562;-63
2024/01/27 09:09:02;;;;;;;1.50;1.40;;;7.20;94.60;;;7.16;57.64;95547.72;5069233;28;20517;-59
2024/01/27 09:11:31;;;;;;;1.83;1.73;;;7.20;94.50;;;7.18;57.35;95534.53;5069035;28;20475;-63
2024/01/27 09:13:59;;;;;;;1.80;1.37;;;7.20;94.80;;;7.18;57.63;95534.53;5069007;28;20535;-62
2024/01/27 09:16:27;;;;;;;2.00;1.90;;;7.30;94.30;;;7.20;57.07;95537.03;5069087;28;20990;-62
2024/01/27 09:18:56;;;;;;;2.17;1.83;;;7.30;94.40;;;7.19;57.34;95546.69;5068953;28;20875;-63
2024/01/27 09:21:28;;;;;;;1.57;1.47;;;7.30;94.30;;;7.14;57.64;95540.91;5068711;28;20967;-63
2024/01/27 09:23:55;;;;;;;2.30;1.63;;;7.20;94.30;;;7.14;58.12;95541.75;5069166;28;20479;-59
2024/01/27 09:26:22;;;;;;;2.20;2.00;;;7.20;94.50;;;7.15;57.89;95540.78;5068814;28;20548;-63
2024/01/27 09:28:54;;;;;;;2.00;1.90;;;7.20;94.30;;;7.18;57.39;95539.75;5068730;28;20439;-59
2024/01/27 09:31:22;;;;;;;2.37;2.00;;;7.20;94.40;;;7.21;57.13;95536.13;5068590;28;20470;-63
2024/01/27 09:33:52;;;;;;;1.77;1.67;;;7.30;94.30;;;7.21;57.65;95516.00;5067351;28;20447;-58
2024/01/27 09:36:20;;;;;;;1.90;1.80;;;7.30;94.20;;;7.24;57.51;95528.06;5065229;28;20570;-63
2024/01/27 09:38:48;;;;;;;2.50;2.30;;;7.30;94.20;;;7.25;57.22;95529.72;5067893;28;20454;-63
2024/01/27 09:41:16;;;;;;;3.37;1.60;;;7.30;94.10;;;7.26;57.35;95515.69;5069143;28;20624;-57
2024/01/27 09:43:45;;;;;;;1.80;1.70;;;7.30;93.80;;;7.25;56.98;95508.78;5068663;28;20512;-63
2024/01/27 09:46:12;;;;;;;1.63;1.53;;;7.30;93.80;;;7.25;57.44;95514.03;5069064;28;20529;-58
2024/01/27 09:48:40;;;;;;;1.60;1.50;;;7.30;93.80;;;7.25;57.47;95504.41;5072405;28;20454;-63
2024/01/27 09:51:11;;;;;;;1.77;1.37;;;7.30;93.80;;;7.24;56.67;95517.59;5068526;28;20470;-63
2024/01/27 09:53:39;;;;;;;1.33;1.23;;;7.30;93.70;;;7.24;57.32;95533.28;5069165;28;20445;-59
2024/01/27 09:56:07;;;;;;;4.00;1.50;;;7.30;93.60;;;7.22;57.18;95536.00;5072575;28;20596;-63
2024/01/27 09:58:34;;;;;;;2.70;2.50;;;7.30;93.80;;;7.23;57.10;95526.38;5072248;28;20465;-63
2024/01/27 10:01:02;;;;;;;1.53;1.33;;;7.30;93.80;;;7.24;57.18;95549.00;5072562;28;20470;-62
2024/01/27 10:03:30;;;;;;;1.40;1.30;;;7.30;93.60;;;7.23;57.34;95555.16;5070714;28;20502;-58
2024/01/27 10:05:58;;;;;;;1.50;1.40;;;7.30;93.50;;;7.20;57.24;95565.81;5072728;28;20478;-58
2024/01/27 10:08:25;;;;;;;1.30;1.20;;;7.30;93.60;;;7.15;56.95;95551.25;5072413;28;20803;-63
2024/01/27 10:10:56;;;;;;;1.50;1.23;;;7.20;93.50;;;7.11;56.90;95544.56;5072167;28;21001;-58
2024/01/27 10:13:26;;;;;;;1.40;1.30;;;7.20;93.40;;;7.07;57.23;95537.88;5068543;28;20535;-63
2024/01/27 10:16:02;;;;;;;1.40;1.30;;;7.20;93.60;;;7.02;57.29;95534.72;5062933;28;20506;-64
2024/01/27 10:18:29;;;;;;;3.10;1.30;;;7.10;93.70;;;6.96;56.91;95524.66;5072103;28;20449;-64
2024/01/27 10:20:57;;;;;;;1.63;1.30;;;7.10;93.70;;;6.95;57.79;95534.28;5069484;28;20466;-61
2024/01/27 10:23:24;;;;;;;1.30;1.20;;;7.00;93.70;;;6.93;56.90;95541.38;5069998;28;20491;-63
2024/01/27 10:25:52;;;;;;;1.87;1.50;;;7.00;93.70;;;6.91;57.65;95547.66;5071858;28;20546;-59
2024/01/27 10:28:22;;;;;;;1.20;1.10;;;7.00;93.70;;;6.88;57.67;95558.31;5071780;28;20447;-63
2024/01/27 10:30:49;;;;;;;1.43;1.20;;;7.00;93.90;;;6.85;57.32;95572.44;5071548;28;20470;-58
2024/01/27 10:33:17;;;;;;;1.60;1.00;;;6.90;93.80;;;6.84;57.66;95575.16;5070619;28;20486;-62